createdAt,value
2017-12-29T00:01:33.547Z,3.28
2017-12-29T00:04:01.004Z,3.27
2017-12-29T00:06:29.190Z,3.22
2017-12-29T00:08:56.635Z,3.31
2017-12-29T00:11:24.152Z,3.26
2017-12-29T00:13:51.635Z,3.29
2017-12-29T00:16:19.142Z,3.14
2017-12-29T00:18:46.582Z,3.27
2017-12-29T00:21:14.096Z,3.24
2017-12-29T00:23:41.572Z,3.20
2017-12-29T00:26:09.010Z,3.16
2017-12-29T00:28:36.499Z,3.12
2017-12-29T00:31:03.964Z,3.13
2017-12-29T00:33:31.411Z,3.12
2017-12-29T00:35:58.881Z,3.03
2017-12-29T00:38:26.331Z,3.04
2017-12-29T00:40:53.790Z,2.99
2017-12-29T00:43:21.308Z,3.10
2017-12-29T00:45:48.776Z,2.98
2017-12-29T00:48:16.219Z,3.05
2017-12-29T00:50:43.715Z,3.12
2017-12-29T00:53:11.184Z,3.16
2017-12-29T00:55:38.643Z,3.16
2017-12-29T00:58:06.118Z,3.13
2017-12-29T01:00:33.717Z,3.16
2017-12-29T01:03:01.167Z,3.18
2017-12-29T01:05:28.708Z,3.18
2017-12-29T01:07:56.172Z,3.24
2017-12-29T01:10:23.634Z,3.20
2017-12-29T01:12:52.823Z,3.22
2017-12-29T01:15:20.268Z,3.21
2017-12-29T01:17:47.767Z,3.27
2017-12-29T01:20:16.712Z,3.30
2017-12-29T01:22:44.191Z,3.27
2017-12-29T01:25:11.648Z,3.26
2017-12-29T01:27:39.107Z,3.32
2017-12-29T01:30:06.564Z,3.27
2017-12-29T01:32:36.961Z,3.31
2017-12-29T01:35:04.474Z,3.39
2017-12-29T01:37:31.923Z,3.31
2017-12-29T01:39:59.388Z,3.40
2017-12-29T01:42:27.086Z,3.35
2017-12-29T01:44:54.565Z,3.41
2017-12-29T01:47:22.024Z,3.36
2017-12-29T01:49:49.479Z,3.38
2017-12-29T01:52:17.178Z,3.39
2017-12-29T01:54:44.647Z,3.44
2017-12-29T01:57:12.126Z,3.40
2017-12-29T01:59:39.571Z,3.35
2017-12-29T02:02:07.024Z,3.38
2017-12-29T02:04:34.484Z,3.37
2017-12-29T02:07:01.925Z,3.37
2017-12-29T02:09:29.387Z,3.37
2017-12-29T02:11:56.858Z,3.39
2017-12-29T02:14:24.328Z,3.38
2017-12-29T02:16:51.802Z,3.41
2017-12-29T02:19:19.281Z,3.32
2017-12-29T02:21:46.719Z,3.30
2017-12-29T02:24:14.167Z,3.29
2017-12-29T02:26:41.712Z,3.26
2017-12-29T02:29:09.168Z,3.24
2017-12-29T02:31:36.644Z,3.31
2017-12-29T02:34:04.116Z,3.27
2017-12-29T02:36:31.567Z,3.22
2017-12-29T02:38:59.029Z,3.16
2017-12-29T02:41:26.541Z,3.18
2017-12-29T02:43:54.000Z,3.13
2017-12-29T02:46:21.463Z,3.14
2017-12-29T02:48:51.952Z,3.21
2017-12-29T02:51:19.425Z,3.10
2017-12-29T02:53:46.871Z,3.11
2017-12-29T02:56:14.361Z,3.09
2017-12-29T02:58:42.887Z,3.10
2017-12-29T03:01:10.351Z,3.06
2017-12-29T03:03:38.011Z,3.11
2017-12-29T03:06:05.459Z,3.13
2017-12-29T03:08:34.453Z,3.11
2017-12-29T03:11:02.005Z,3.13
2017-12-29T03:13:29.455Z,3.05
2017-12-29T03:15:56.967Z,3.00
2017-12-29T03:18:24.455Z,2.99
2017-12-29T03:20:51.904Z,2.96
2017-12-29T03:23:19.353Z,2.98
2017-12-29T03:25:46.838Z,2.98
2017-12-29T03:28:14.390Z,2.90
2017-12-29T03:30:41.836Z,2.89
2017-12-29T03:33:09.389Z,2.94
2017-12-29T03:35:37.088Z,2.91
2017-12-29T03:38:04.557Z,2.89
2017-12-29T03:40:32.938Z,2.80
2017-12-29T03:43:00.404Z,2.89
2017-12-29T03:45:27.848Z,2.81
2017-12-29T03:47:55.324Z,2.82
2017-12-29T03:50:22.772Z,2.76
2017-12-29T03:52:50.218Z,2.72
2017-12-29T03:55:17.676Z,2.71
2017-12-29T03:57:45.119Z,2.69
2017-12-29T04:00:12.552Z,2.63
2017-12-29T04:02:40.058Z,2.61
2017-12-29T04:05:07.497Z,2.63
2017-12-29T04:07:34.974Z,2.57
2017-12-29T04:10:02.438Z,2.59
2017-12-29T04:12:30.254Z,2.59
2017-12-29T04:14:57.704Z,2.52
2017-12-29T04:17:25.219Z,2.53
2017-12-29T04:19:52.690Z,2.57
2017-12-29T04:22:20.141Z,2.57
2017-12-29T04:24:47.610Z,2.48
2017-12-29T04:27:15.471Z,2.40
2017-12-29T04:29:42.934Z,2.40
2017-12-29T04:32:10.425Z,2.45
2017-12-29T04:34:37.874Z,2.45
2017-12-29T04:37:05.343Z,2.38
2017-12-29T04:39:32.842Z,2.46
2017-12-29T04:42:00.279Z,2.32
2017-12-29T04:44:27.735Z,2.33
2017-12-29T04:46:55.224Z,2.38
2017-12-29T04:49:22.672Z,2.37
2017-12-29T04:51:50.141Z,2.31
2017-12-29T04:54:17.632Z,2.34
2017-12-29T04:56:45.075Z,2.35
2017-12-29T04:59:12.527Z,2.32
2017-12-29T05:01:40.062Z,2.35
2017-12-29T05:04:07.519Z,2.34
2017-12-29T05:06:34.971Z,2.31
2017-12-29T05:09:02.443Z,2.27
2017-12-29T05:11:29.931Z,2.32
2017-12-29T05:13:57.403Z,2.35
2017-12-29T05:16:24.894Z,2.29
2017-12-29T05:18:52.331Z,2.32
2017-12-29T05:21:19.801Z,2.35
2017-12-29T05:23:47.260Z,2.37
2017-12-29T05:26:14.955Z,2.40
2017-12-29T05:28:42.407Z,2.33
2017-12-29T05:31:09.849Z,2.29
2017-12-29T05:33:37.319Z,2.32
2017-12-29T05:36:04.774Z,2.36
2017-12-29T05:38:32.746Z,2.32
2017-12-29T05:41:00.267Z,2.33
2017-12-29T05:43:27.735Z,2.37
2017-12-29T05:45:55.211Z,2.39
2017-12-29T05:48:22.650Z,2.31
2017-12-29T05:50:50.098Z,2.41
2017-12-29T05:53:17.566Z,2.35
2017-12-29T05:55:45.037Z,2.41
2017-12-29T05:58:12.480Z,2.50
2017-12-29T06:00:39.978Z,2.44
2017-12-29T06:03:07.417Z,2.34
2017-12-29T06:05:34.853Z,2.29
2017-12-29T06:08:02.376Z,2.45
2017-12-29T06:10:29.836Z,2.45
2017-12-29T06:12:57.320Z,2.40
2017-12-29T06:15:24.774Z,2.39
2017-12-29T06:17:52.256Z,2.26
2017-12-29T06:20:19.737Z,2.26
2017-12-29T06:22:47.199Z,2.24
2017-12-29T06:25:14.668Z,2.27
2017-12-29T06:27:42.114Z,2.22
2017-12-29T06:30:09.632Z,2.25
2017-12-29T06:32:37.109Z,2.15
2017-12-29T06:35:04.554Z,2.28
2017-12-29T06:37:32.010Z,2.24
2017-12-29T06:39:59.472Z,2.20
2017-12-29T06:42:26.977Z,2.20
2017-12-29T06:44:54.487Z,2.24
2017-12-29T06:47:21.944Z,2.12
2017-12-29T06:49:49.400Z,2.12
2017-12-29T06:52:17.085Z,2.12
2017-12-29T06:54:44.566Z,1.96
2017-12-29T06:57:12.038Z,1.98
2017-12-29T06:59:39.552Z,1.96
2017-12-29T07:02:07.000Z,1.91
2017-12-29T07:04:35.588Z,1.92
2017-12-29T07:07:03.108Z,1.93
2017-12-29T07:09:30.556Z,1.91
2017-12-29T07:11:58.021Z,1.93
2017-12-29T07:14:25.539Z,2.02
2017-12-29T07:16:53.007Z,1.99
2017-12-29T07:19:20.487Z,1.99
2017-12-29T07:21:47.955Z,2.01
2017-12-29T07:24:15.438Z,1.94
2017-12-29T07:26:42.890Z,2.05
2017-12-29T07:29:10.471Z,2.01
2017-12-29T07:31:37.935Z,2.05
2017-12-29T07:34:05.434Z,2.11
2017-12-29T07:36:32.919Z,2.11
2017-12-29T07:39:00.450Z,2.24
2017-12-29T07:41:27.909Z,2.14
2017-12-29T07:43:55.392Z,2.10
2017-12-29T07:46:22.840Z,2.16
2017-12-29T07:48:50.297Z,2.31
2017-12-29T07:51:17.896Z,2.45
2017-12-29T07:53:45.354Z,2.52
2017-12-29T07:56:12.808Z,2.61
2017-12-29T07:58:40.266Z,2.63
2017-12-29T08:01:07.715Z,2.57
2017-12-29T08:03:35.150Z,2.64
2017-12-29T08:06:02.679Z,2.57
2017-12-29T08:08:30.138Z,2.53
2017-12-29T08:10:57.600Z,2.57
2017-12-29T08:13:25.103Z,2.53
2017-12-29T08:15:52.573Z,2.55
2017-12-29T08:18:20.039Z,2.63
2017-12-29T08:20:47.518Z,2.56
2017-12-29T08:23:14.975Z,2.42
2017-12-29T08:25:42.419Z,2.44
2017-12-29T08:28:14.170Z,2.49
2017-12-29T08:30:37.375Z,2.43
2017-12-29T08:33:04.873Z,2.47
2017-12-29T08:35:32.340Z,2.45
2017-12-29T08:38:00.284Z,2.52
2017-12-29T08:40:27.776Z,2.54
2017-12-29T08:42:55.606Z,2.51
2017-12-29T08:45:23.093Z,2.55
2017-12-29T08:47:50.538Z,2.60
2017-12-29T08:50:18.031Z,2.60
2017-12-29T08:52:45.520Z,2.67
2017-12-29T08:55:12.994Z,2.65
2017-12-29T08:57:40.522Z,2.65
2017-12-29T09:00:07.982Z,2.57
2017-12-29T09:02:35.427Z,2.52
2017-12-29T09:05:02.927Z,2.54
2017-12-29T09:07:30.389Z,2.52
2017-12-29T09:09:57.899Z,2.50
2017-12-29T09:12:25.509Z,2.56
2017-12-29T09:14:53.019Z,2.54
2017-12-29T09:17:20.542Z,2.50
2017-12-29T09:19:48.075Z,2.48
2017-12-29T09:22:15.843Z,2.56
2017-12-29T09:24:43.291Z,2.53
2017-12-29T09:27:10.825Z,2.52
2017-12-29T09:29:38.293Z,2.60
2017-12-29T09:32:05.775Z,2.59
2017-12-29T09:34:33.743Z,2.70
2017-12-29T09:37:01.256Z,2.80
2017-12-29T09:39:28.762Z,2.85
2017-12-29T09:41:56.299Z,2.91
2017-12-29T09:44:23.761Z,3.04
2017-12-29T09:46:51.195Z,3.16
2017-12-29T09:49:18.781Z,3.11
2017-12-29T09:51:46.239Z,3.07
2017-12-29T09:54:13.684Z,3.04
2017-12-29T09:56:41.144Z,3.15
2017-12-29T09:59:08.595Z,3.23
2017-12-29T10:01:36.036Z,3.28
2017-12-29T10:04:03.527Z,3.36
2017-12-29T10:06:31.339Z,3.44
2017-12-29T10:08:58.805Z,3.45
2017-12-29T10:11:26.290Z,3.55
2017-12-29T10:13:53.733Z,3.51
2017-12-29T10:16:21.197Z,3.52
2017-12-29T10:18:48.887Z,3.57
2017-12-29T10:21:16.427Z,3.71
2017-12-29T10:23:43.900Z,3.86
2017-12-29T10:26:11.411Z,3.87
2017-12-29T10:28:38.886Z,3.88
2017-12-29T10:31:06.384Z,3.93
2017-12-29T10:33:33.855Z,3.80
2017-12-29T10:36:01.723Z,3.80
2017-12-29T10:38:29.195Z,3.83
2017-12-29T10:40:56.892Z,3.96
2017-12-29T10:43:24.410Z,3.88
2017-12-29T10:45:51.869Z,3.96
2017-12-29T10:48:19.361Z,3.93
2017-12-29T10:50:46.864Z,4.03
2017-12-29T10:53:14.306Z,4.02
2017-12-29T10:55:41.779Z,3.94
2017-12-29T10:58:09.216Z,3.82
2017-12-29T11:00:36.723Z,3.92
2017-12-29T11:03:04.208Z,3.96
2017-12-29T11:05:31.680Z,4.06
2017-12-29T11:07:59.149Z,3.97
2017-12-29T11:10:26.639Z,3.84
2017-12-29T11:12:54.080Z,3.80
2017-12-29T11:15:21.539Z,3.81
2017-12-29T11:17:49.021Z,3.66
2017-12-29T11:20:16.479Z,3.55
2017-12-29T11:22:43.923Z,3.51
2017-12-29T11:25:11.399Z,3.27
2017-12-29T11:27:38.870Z,3.32
2017-12-29T11:30:06.326Z,3.37
2017-12-29T11:32:33.984Z,3.41
2017-12-29T11:35:07.237Z,3.44
2017-12-29T11:37:34.713Z,3.46
2017-12-29T11:40:02.191Z,3.50
2017-12-29T11:42:29.801Z,3.48
2017-12-29T11:44:57.310Z,3.48
2017-12-29T11:47:24.779Z,3.46
2017-12-29T11:49:52.252Z,3.42
2017-12-29T11:52:19.759Z,3.54
2017-12-29T11:54:47.759Z,3.48
2017-12-29T11:57:15.320Z,3.58
2017-12-29T11:59:42.818Z,3.62
2017-12-29T12:02:11.330Z,3.66
2017-12-29T12:04:38.807Z,3.61
2017-12-29T12:07:06.309Z,3.61
2017-12-29T12:09:33.823Z,3.72
2017-12-29T12:12:01.429Z,3.70
2017-12-29T12:14:29.843Z,3.71
2017-12-29T12:16:57.324Z,3.63
2017-12-29T12:19:24.811Z,3.75
2017-12-29T12:21:52.958Z,3.79
2017-12-29T12:24:20.460Z,3.78
2017-12-29T12:26:47.927Z,3.82
2017-12-29T12:29:15.392Z,3.85
2017-12-29T12:31:42.873Z,3.78
2017-12-29T12:34:10.359Z,3.73
2017-12-29T12:36:37.847Z,3.63
2017-12-29T12:39:05.355Z,3.66
2017-12-29T12:41:32.847Z,3.69
2017-12-29T12:44:00.342Z,3.66
2017-12-29T12:46:27.819Z,3.74
2017-12-29T12:48:55.312Z,3.64
2017-12-29T12:53:49.546Z,3.75
2017-12-29T12:56:17.335Z,3.72
2017-12-29T12:58:44.811Z,3.62
2017-12-29T13:01:12.273Z,3.72
2017-12-29T13:03:39.796Z,3.84
2017-12-29T13:06:07.264Z,4.00
2017-12-29T13:08:34.842Z,3.95
2017-12-29T13:11:02.435Z,3.90
2017-12-29T13:13:29.914Z,3.86
2017-12-29T13:15:57.379Z,3.75
2017-12-29T13:18:24.839Z,3.67
2017-12-29T13:20:52.356Z,3.73
2017-12-29T13:23:21.255Z,3.67
2017-12-29T13:25:48.760Z,3.73
2017-12-29T13:28:16.378Z,3.82
2017-12-29T13:30:43.846Z,3.87
2017-12-29T13:33:11.316Z,3.70
2017-12-29T13:35:38.817Z,3.67
2017-12-29T13:38:06.282Z,3.79
2017-12-29T13:40:33.763Z,3.86
2017-12-29T13:43:01.250Z,3.82
2017-12-29T13:45:28.736Z,3.65
2017-12-29T13:47:56.233Z,3.55
2017-12-29T13:50:23.694Z,3.55
2017-12-29T13:52:51.203Z,3.52
2017-12-29T13:55:18.685Z,3.50
2017-12-29T13:57:46.186Z,3.53
2017-12-29T14:00:13.628Z,3.44
2017-12-29T14:02:41.117Z,3.52
2017-12-29T14:05:08.584Z,3.56
2017-12-29T14:07:36.051Z,3.81
2017-12-29T14:10:03.512Z,4.18
2017-12-29T14:12:30.988Z,4.53
2017-12-29T14:14:58.465Z,4.65
2017-12-29T14:17:25.959Z,4.47
2017-12-29T14:19:53.434Z,4.32
2017-12-29T14:22:20.903Z,4.20
2017-12-29T14:24:48.831Z,4.18
2017-12-29T14:27:16.445Z,4.38
2017-12-29T14:29:43.923Z,4.39
2017-12-29T14:32:11.391Z,4.00
2017-12-29T14:34:39.037Z,3.94
2017-12-29T14:37:06.517Z,3.77
2017-12-29T14:39:34.002Z,3.46
2017-12-29T14:42:01.471Z,3.32
2017-12-29T14:44:28.936Z,3.27
2017-12-29T14:46:56.431Z,3.25
2017-12-29T14:49:23.889Z,3.22
2017-12-29T14:51:51.373Z,3.09
2017-12-29T14:54:18.852Z,2.89
2017-12-29T14:56:46.333Z,2.82
2017-12-29T14:59:13.844Z,2.77
2017-12-29T15:01:41.318Z,2.75
2017-12-29T15:04:08.805Z,2.66
2017-12-29T15:06:36.294Z,2.54
2017-12-29T15:09:03.954Z,2.57
2017-12-29T15:11:31.489Z,2.54
2017-12-29T15:13:58.955Z,2.40
2017-12-29T15:16:26.422Z,2.33
2017-12-29T15:18:55.124Z,2.28
2017-12-29T15:21:22.666Z,2.20
2017-12-29T15:23:50.136Z,2.16
2017-12-29T15:26:17.748Z,2.20
2017-12-29T15:28:45.247Z,2.26
2017-12-29T15:31:12.718Z,2.17
2017-12-29T15:33:40.195Z,2.17
2017-12-29T15:36:07.696Z,2.13
2017-12-29T15:38:35.266Z,2.11
2017-12-29T15:41:02.825Z,2.08
2017-12-29T15:43:30.299Z,2.00
2017-12-29T15:45:57.766Z,2.04
2017-12-29T15:48:25.251Z,1.98
2017-12-29T15:50:53.502Z,1.98
2017-12-29T15:53:20.995Z,1.95
2017-12-29T15:55:48.479Z,2.05
2017-12-29T15:58:16.053Z,2.03
2017-12-29T16:00:44.510Z,1.98
2017-12-29T16:03:11.959Z,1.89
2017-12-29T16:05:39.467Z,1.89
2017-12-29T16:08:06.938Z,1.89
2017-12-29T16:10:34.497Z,1.84
2017-12-29T16:13:01.982Z,1.80
2017-12-29T16:15:30.074Z,1.78
2017-12-29T16:17:57.551Z,1.78
2017-12-29T16:20:25.038Z,1.69
2017-12-29T16:22:52.530Z,1.70
2017-12-29T16:25:20.017Z,1.73
2017-12-29T16:27:47.524Z,1.82
2017-12-29T16:30:15.007Z,1.72
2017-12-29T16:32:42.498Z,1.71
2017-12-29T16:35:10.022Z,1.64
2017-12-29T16:37:37.581Z,1.57
2017-12-29T16:40:05.111Z,1.56
2017-12-29T16:42:32.777Z,1.55
2017-12-29T16:45:00.319Z,1.55
2017-12-29T16:47:27.799Z,1.53
2017-12-29T16:49:55.312Z,1.52
2017-12-29T16:52:22.830Z,1.44
2017-12-29T16:54:50.606Z,1.57
2017-12-29T16:57:18.160Z,1.57
2017-12-29T16:59:45.670Z,1.63
2017-12-29T17:02:13.299Z,1.59
2017-12-29T17:04:40.817Z,1.58
2017-12-29T17:07:08.319Z,1.57
2017-12-29T17:09:35.812Z,1.46
2017-12-29T17:12:03.291Z,1.42
2017-12-29T17:14:30.845Z,1.36
2017-12-29T17:16:59.207Z,1.34
2017-12-29T17:19:26.741Z,1.33
2017-12-29T17:21:54.253Z,1.28
2017-12-29T17:24:21.732Z,1.32
2017-12-29T17:26:49.216Z,1.31
2017-12-29T17:29:16.709Z,1.22
2017-12-29T17:31:44.194Z,1.18
2017-12-29T17:34:11.694Z,1.23
2017-12-29T17:36:40.030Z,1.15
2017-12-29T17:39:08.472Z,1.11
2017-12-29T17:41:35.978Z,1.22
2017-12-29T17:44:03.462Z,1.20
2017-12-29T17:46:30.956Z,1.03
2017-12-29T17:48:58.739Z,1.01
2017-12-29T17:53:59.898Z,1.02
2017-12-29T17:56:27.380Z,0.95
2017-12-29T17:58:54.853Z,0.96
2017-12-29T18:01:22.376Z,0.95
2017-12-29T18:03:49.831Z,0.85
2017-12-29T18:06:17.278Z,0.71
2017-12-29T18:08:45.085Z,0.67
2017-12-29T18:11:12.574Z,0.57
2017-12-29T18:13:40.019Z,0.45
2017-12-29T18:16:07.524Z,0.53
2017-12-29T18:18:35.209Z,0.53
2017-12-29T18:21:02.674Z,0.41
2017-12-29T18:23:30.827Z,0.41
2017-12-29T18:25:58.394Z,0.42
2017-12-29T18:28:25.930Z,0.39
2017-12-29T18:30:53.419Z,0.47
2017-12-29T18:33:20.867Z,0.27
2017-12-29T18:35:48.352Z,0.12
2017-12-29T18:38:15.880Z,0.00
2017-12-29T18:40:43.563Z,-0.05
2017-12-29T18:43:11.059Z,-0.10
2017-12-29T18:45:38.759Z,-0.20
2017-12-29T18:48:06.219Z,-0.22
2017-12-29T18:50:33.939Z,-0.31
2017-12-29T18:53:01.535Z,-0.37
2017-12-29T18:55:28.994Z,-0.42
2017-12-29T18:57:56.528Z,-0.46
2017-12-29T19:00:24.747Z,-0.47
2017-12-29T19:02:52.271Z,-0.53
2017-12-29T19:05:19.751Z,-0.56
2017-12-29T19:07:47.322Z,-0.56
2017-12-29T19:10:14.867Z,-0.65
2017-12-29T19:12:42.344Z,-0.58
2017-12-29T19:15:09.948Z,-0.39
2017-12-29T19:17:37.472Z,-0.35
2017-12-29T19:20:05.052Z,-0.23
2017-12-29T19:22:32.715Z,-0.27
2017-12-29T19:25:00.291Z,-0.20
2017-12-29T19:27:28.733Z,-0.27
2017-12-29T19:29:57.780Z,-0.19
2017-12-29T19:32:25.388Z,-0.14
2017-12-29T19:34:53.191Z,-0.27
2017-12-29T19:37:20.910Z,-0.38
2017-12-29T19:39:48.578Z,-0.32
2017-12-29T19:42:16.376Z,-0.40
2017-12-29T19:44:44.160Z,-0.32
2017-12-29T19:47:11.938Z,-0.27
2017-12-29T19:49:39.680Z,-0.21
2017-12-29T19:52:07.493Z,-0.18
2017-12-29T19:54:35.328Z,-0.17
2017-12-29T19:57:03.156Z,-0.10
2017-12-29T19:59:30.980Z,-0.22
2017-12-29T20:01:58.867Z,-0.22
2017-12-29T20:04:26.813Z,-0.26
2017-12-29T20:06:54.672Z,-0.32
2017-12-29T20:09:22.527Z,-0.39
2017-12-29T20:11:50.371Z,-0.59
2017-12-29T20:14:18.595Z,-0.69
2017-12-29T20:16:46.425Z,-0.77
2017-12-29T20:19:14.261Z,-0.87
2017-12-29T20:21:42.102Z,-0.96
2017-12-29T20:24:09.992Z,-0.96
2017-12-29T20:26:37.847Z,-0.89
2017-12-29T20:29:05.712Z,-0.96
2017-12-29T20:31:34.500Z,-0.96
2017-12-29T20:34:02.353Z,-1.02
2017-12-29T20:36:30.287Z,-1.00
2017-12-29T20:38:59.695Z,-0.96
2017-12-29T20:41:27.626Z,-0.86
2017-12-29T20:43:56.753Z,-0.90
2017-12-29T20:46:25.801Z,-0.87
2017-12-29T20:48:56.162Z,-0.85
2017-12-29T20:51:24.463Z,-0.95
2017-12-29T20:53:52.381Z,-1.05
2017-12-29T20:56:20.336Z,-1.13
2017-12-29T20:58:48.256Z,-0.99
2017-12-29T21:01:16.204Z,-0.96
2017-12-29T21:03:44.125Z,-0.97
2017-12-29T21:06:12.027Z,-0.82
2017-12-29T21:08:39.853Z,-0.86
2017-12-29T21:11:08.755Z,-0.84
2017-12-29T21:13:36.674Z,-0.88
2017-12-29T21:16:04.552Z,-0.97
2017-12-29T21:18:33.717Z,-1.00
2017-12-29T21:21:01.511Z,-1.04
2017-12-29T21:23:30.498Z,-1.03
2017-12-29T21:25:58.311Z,-1.08
2017-12-29T21:28:26.207Z,-1.05
2017-12-29T21:30:54.061Z,-0.97
2017-12-29T21:33:21.913Z,-0.92
2017-12-29T21:35:49.785Z,-0.86
2017-12-29T21:38:17.631Z,-0.67
2017-12-29T21:40:46.185Z,-0.71
2017-12-29T21:43:13.735Z,-0.59
2017-12-29T21:48:17.266Z,-0.73
2017-12-29T21:50:44.933Z,-0.77
2017-12-29T21:53:12.474Z,-0.83
2017-12-29T21:55:40.164Z,-0.92
2017-12-29T21:58:07.652Z,-0.94
2017-12-29T22:00:35.427Z,-1.00
2017-12-29T22:03:02.936Z,-1.08
2017-12-29T22:05:31.007Z,-1.11
2017-12-29T22:07:58.495Z,-1.06
2017-12-29T22:10:25.967Z,-0.99
2017-12-29T22:12:53.419Z,-0.97
2017-12-29T22:15:20.933Z,-0.90
2017-12-29T22:17:49.162Z,-0.84
2017-12-29T22:20:16.606Z,-0.84
2017-12-29T22:22:44.305Z,-0.91
2017-12-29T22:25:11.827Z,-0.96
2017-12-29T22:27:39.394Z,-1.04
2017-12-29T22:30:06.952Z,-1.15
2017-12-29T22:32:34.409Z,-1.26
2017-12-29T22:35:01.912Z,-1.34
2017-12-29T22:37:29.394Z,-1.48
2017-12-29T22:39:57.775Z,-1.43
2017-12-29T22:42:25.325Z,-1.53
2017-12-29T22:44:52.931Z,-1.58
2017-12-29T22:47:20.384Z,-1.66
2017-12-29T22:49:50.182Z,-1.78
2017-12-29T22:52:17.713Z,-1.67
2017-12-29T22:54:45.180Z,-1.69
2017-12-29T22:57:12.635Z,-1.76
2017-12-29T22:59:40.120Z,-1.85
2017-12-29T23:02:07.627Z,-1.82
2017-12-29T23:04:35.112Z,-1.65
2017-12-29T23:07:02.572Z,-1.73
2017-12-29T23:09:31.294Z,-1.80
2017-12-29T23:11:58.751Z,-1.85
2017-12-29T23:14:26.220Z,-1.86
2017-12-29T23:16:53.684Z,-1.89
2017-12-29T23:19:21.337Z,-1.93
2017-12-29T23:21:48.808Z,-1.85
2017-12-29T23:24:16.278Z,-1.89
2017-12-29T23:26:43.735Z,-1.99
2017-12-29T23:29:11.205Z,-2.09
2017-12-29T23:31:38.669Z,-2.17
2017-12-29T23:34:06.126Z,-2.20
2017-12-29T23:36:33.613Z,-2.24
2017-12-29T23:39:01.063Z,-2.30
2017-12-29T23:41:28.512Z,-2.37
2017-12-29T23:43:55.977Z,-2.34
2017-12-29T23:46:23.419Z,-2.30
2017-12-29T23:48:50.878Z,-2.32
2017-12-29T23:51:18.427Z,-2.16
2017-12-29T23:53:45.902Z,-2.01
2017-12-29T23:56:13.361Z,-1.91
2017-12-29T23:58:40.839Z,-1.77
